Time;durP1;ratioP1;P1;durP2;ratioP2;P2;SDS_P1;SDS_P2;PMS_P1;PMS_P2;Temp;Humidity;BMP_temperature;BMP_pressure;BME280_temperature;BME280_humidity;BME280_pressure;Samples;Min_cycle;Max_cycle;Signal;HPM_P1;HPM_P2
2023/12/22 00:02:16;;;;;;;4.80;1.40;;;7.00;88.60;;;;;;4973966;28;20023;-81
2023/12/22 00:04:42;;;;;;;11.75;1.80;;;7.10;88.40;;;;;;4956987;28;20414;-79
2023/12/22 00:07:07;;;;;;;5.53;1.58;;;7.10;88.80;;;;;;4973665;28;20082;-78
2023/12/22 00:09:33;;;;;;;3.10;0.80;;;7.00;89.50;;;;;;4956608;28;20117;-79
2023/12/22 00:11:58;;;;;;;2.97;0.73;;;6.90;88.40;;;;;;4956692;28;20055;-79
2023/12/22 00:14:24;;;;;;;1.40;0.47;;;6.80;88.30;;;;;;4956947;28;20031;-79
2023/12/22 00:16:49;;;;;;;3.13;0.55;;;6.80;86.20;;;;;;4958105;28;20038;-79
2023/12/22 00:19:15;;;;;;;2.17;0.68;;;6.70;85.00;;;;;;4959793;28;20045;-81
2023/12/22 00:21:40;;;;;;;2.47;0.45;;;6.60;85.00;;;;;;4960147;28;20139;-81
2023/12/22 00:24:06;;;;;;;1.25;0.43;;;6.50;84.70;;;;;;4960228;28;20114;-81
2023/12/22 00:26:32;;;;;;;1.17;0.40;;;6.50;83.90;;;;;;4977062;28;20014;-80
2023/12/22 00:28:57;;;;;;;2.60;0.70;;;6.40;83.80;;;;;;4959963;28;20070;-79
2023/12/22 00:31:23;;;;;;;2.35;0.60;;;6.40;84.00;;;;;;4961841;28;20130;-81
2023/12/22 00:33:49;;;;;;;3.45;0.40;;;6.30;84.60;;;;;;4982674;28;20050;-79
2023/12/22 00:36:14;;;;;;;2.42;0.50;;;6.40;84.00;;;;;;4969543;28;20019;-79
2023/12/22 00:38:40;;;;;;;5.35;1.02;;;6.40;84.30;;;;;;4987208;28;20407;-79
2023/12/22 00:41:06;;;;;;;1.70;0.60;;;6.40;84.40;;;;;;4988054;28;20026;-78
2023/12/22 00:43:31;;;;;;;3.28;0.90;;;6.50;84.40;;;;;;4979886;28;20395;-77
2023/12/22 00:45:57;;;;;;;7.90;1.33;;;6.50;84.30;;;;;;4976741;28;20551;-78
2023/12/22 00:48:23;;;;;;;2.83;1.13;;;6.50;84.50;;;;;;4959221;28;20503;-78
2023/12/22 00:50:48;;;;;;;4.95;0.80;;;6.50;85.20;;;;;;4959569;28;20022;-79
2023/12/22 00:53:14;;;;;;;5.30;0.80;;;6.50;84.70;;;;;;4959020;28;20027;-79
2023/12/22 00:55:39;;;;;;;4.43;0.95;;;6.50;84.60;;;;;;4958909;28;20490;-80
2023/12/22 00:58:05;;;;;;;5.03;0.93;;;6.60;84.40;;;;;;4976272;28;20050;-79
2023/12/22 01:00:30;;;;;;;7.20;1.10;;;6.60;84.80;;;;;;4976387;28;20035;-79
2023/12/22 01:02:56;;;;;;;5.45;0.90;;;6.50;85.40;;;;;;4976380;28;20045;-79
2023/12/22 01:05:22;;;;;;;5.53;1.05;;;6.50;85.60;;;;;;4976279;28;20034;-84
2023/12/22 01:07:47;;;;;;;5.53;1.20;;;6.60;85.80;;;;;;4976152;28;20507;-79
2023/12/22 01:10:13;;;;;;;5.28;1.40;;;6.60;86.10;;;;;;4976366;28;20486;-79
2023/12/22 01:12:38;;;;;;;7.47;1.60;;;6.60;86.40;;;;;;4958709;28;20027;-79
2023/12/22 01:15:04;;;;;;;6.00;1.27;;;6.50;86.60;;;;;;4976171;28;20030;-77
2023/12/22 01:17:30;;;;;;;7.45;1.63;;;6.50;87.20;;;;;;4958846;28;20034;-80
2023/12/22 01:19:55;;;;;;;7.32;2.30;;;6.50;88.00;;;;;;4958681;28;20026;-80
2023/12/22 01:22:22;;;;;;;5.38;1.85;;;6.50;88.50;;;;;;4959038;28;20467;-79
2023/12/22 01:24:48;;;;;;;7.13;1.50;;;6.50;88.70;;;;;;4958816;28;20420;-81
2023/12/22 01:27:14;;;;;;;8.60;1.83;;;6.60;88.00;;;;;;4975640;28;20085;-80
2023/12/22 01:29:40;;;;;;;8.50;2.42;;;6.60;87.90;;;;;;4943073;28;20411;-78
2023/12/22 01:32:06;;;;;;;7.40;2.03;;;6.50;88.00;;;;;;4975724;28;20097;-78
2023/12/22 01:34:31;;;;;;;6.93;1.98;;;6.50;88.30;;;;;;4958482;28;20039;-79
2023/12/22 01:36:57;;;;;;;7.97;1.75;;;6.50;88.50;;;;;;4958929;28;20027;-82
2023/12/22 01:39:22;;;;;;;7.82;1.73;;;6.50;89.30;;;;;;4975860;28;20130;-80
2023/12/22 01:41:48;;;;;;;8.20;1.70;;;6.40;89.40;;;;;;4975481;28;20030;-78
2023/12/22 01:44:13;;;;;;;8.18;1.50;;;6.40;89.50;;;;;;4958472;28;20027;-78
2023/12/22 01:46:39;;;;;;;5.75;1.40;;;6.50;89.80;;;;;;4975560;28;20333;-78
2023/12/22 01:49:07;;;;;;;6.22;1.30;;;6.40;89.70;;;;;;4958149;28;20045;-79
2023/12/22 01:51:35;;;;;;;6.43;1.30;;;6.40;90.20;;;;;;4958396;28;20027;-78
2023/12/22 01:54:01;;;;;;;2.65;1.02;;;6.30;89.30;;;;;;4958209;28;20027;-79
2023/12/22 01:56:27;;;;;;;5.53;1.52;;;6.30;89.10;;;;;;4958135;28;20051;-80
2023/12/22 01:58:58;;;;;;;5.45;1.48;;;6.30;88.70;;;;;;4958230;28;20066;-79
2023/12/22 02:01:24;;;;;;;7.25;1.98;;;6.40;87.20;;;;;;4957939;28;20486;-79
2023/12/22 02:03:52;;;;;;;5.75;1.48;;;6.40;87.80;;;;;;4958254;28;20121;-79
2023/12/22 02:06:18;;;;;;;8.65;1.75;;;6.50;88.20;;;;;;4975301;28;20502;-80
2023/12/22 02:08:47;;;;;;;6.63;1.80;;;6.50;87.50;;;;;;4975042;28;20118;-80
2023/12/22 02:11:14;;;;;;;8.60;2.65;;;6.50;87.60;;;;;;4957742;28;20375;-79
2023/12/22 02:13:41;;;;;;;7.93;2.20;;;6.60;87.20;;;;;;4957960;28;20082;-78
2023/12/22 02:16:42;;;;;;;7.85;1.60;;;6.50;88.10;;;;;;4957710;28;20420;-76
2023/12/22 02:19:39;;;;;;;5.10;1.55;;;6.40;88.00;;;;;;4969470;28;20059;-75
2023/12/22 02:22:06;;;;;;;5.88;1.20;;;6.40;85.70;;;;;;4951792;28;20493;-77
2023/12/22 02:24:32;;;;;;;5.07;1.10;;;6.30;85.20;;;;;;4957334;28;20464;-77
2023/12/22 02:27:24;;;;;;;3.85;1.20;;;6.20;84.10;;;;;;4957461;28;20030;-78
2023/12/22 02:29:57;;;;;;;1.90;0.50;;;6.10;84.60;;;;;;4961195;28;20035;-78
2023/12/22 02:32:29;;;;;;;3.45;0.60;;;5.90;84.40;;;;;;4957308;28;20118;-78
2023/12/22 02:34:57;;;;;;;2.90;0.73;;;5.80;84.80;;;;;;4957491;28;20029;-80
2023/12/22 02:37:24;;;;;;;2.65;0.40;;;5.70;86.20;;;;;;4957779;28;20117;-82
2023/12/22 02:39:51;;;;;;;3.58;0.40;;;5.60;85.90;;;;;;4956534;28;20534;-80
2023/12/22 02:42:19;;;;;;;1.48;0.40;;;5.60;84.80;;;;;;4957700;28;20026;-79
2023/12/22 02:44:45;;;;;;;2.15;0.57;;;5.40;85.40;;;;;;4957444;28;20031;-82
2023/12/22 02:47:10;;;;;;;1.52;0.50;;;5.40;84.20;;;;;;4974629;28;20023;-79
2023/12/22 02:49:36;;;;;;;1.33;0.30;;;5.50;84.50;;;;;;4957347;28;20019;-77
2023/12/22 02:52:01;;;;;;;1.92;0.57;;;5.40;84.80;;;;;;4957567;28;20027;-76
2023/12/22 02:54:29;;;;;;;7.05;0.85;;;5.50;85.00;;;;;;4959193;28;20023;-80
2023/12/22 02:56:55;;;;;;;1.90;0.50;;;5.50;85.10;;;;;;4958048;28;20081;-81
2023/12/22 02:59:20;;;;;;;2.05;0.75;;;5.50;85.40;;;;;;4957581;28;20046;-81
2023/12/22 03:01:46;;;;;;;5.63;1.00;;;5.60;85.70;;;;;;4957387;28;20026;-78
2023/12/22 03:04:11;;;;;;;3.40;0.85;;;5.60;85.90;;;;;;4957225;28;20023;-83
2023/12/22 03:06:37;;;;;;;4.35;1.33;;;5.60;86.20;;;;;;4960417;28;20408;-82
2023/12/22 03:09:02;;;;;;;3.85;1.02;;;5.60;86.20;;;;;;4977569;28;20126;-83
2023/12/22 03:11:28;;;;;;;9.60;1.60;;;5.70;86.30;;;;;;4974737;28;20092;-80
2023/12/22 03:13:54;;;;;;;6.85;1.67;;;5.80;86.90;;;;;;4957263;28;20031;-79
2023/12/22 03:16:19;;;;;;;10.50;1.92;;;5.90;86.10;;;;;;4956979;28;20023;-80
2023/12/22 03:18:45;;;;;;;11.27;2.25;;;5.90;85.70;;;;;;4957127;28;20058;-78
2023/12/22 03:21:18;;;;;;;11.32;2.28;;;6.00;86.10;;;;;;4974088;28;20451;-78
2023/12/22 03:23:44;;;;;;;5.93;1.42;;;6.10;86.10;;;;;;4974075;28;20518;-79
2023/12/22 03:26:09;;;;;;;5.75;1.55;;;6.10;85.60;;;;;;4957094;28;20015;-79
2023/12/22 03:28:35;;;;;;;8.98;2.00;;;6.10;85.90;;;;;;4974038;28;20178;-79
2023/12/22 03:31:00;;;;;;;7.35;1.90;;;6.10;86.80;;;;;;4957029;28;20499;-78
2023/12/22 03:33:26;;;;;;;12.70;1.92;;;6.10;87.30;;;;;;4957090;28;20023;-78
2023/12/22 03:35:51;;;;;;;10.80;2.22;;;6.10;88.10;;;;;;4956617;28;20364;-78
2023/12/22 03:38:17;;;;;;;8.70;2.20;;;6.10;87.80;;;;;;4956980;28;20114;-78
2023/12/22 03:40:42;;;;;;;14.73;2.35;;;6.00;87.50;;;;;;4956848;28;20165;-80
2023/12/22 03:43:08;;;;;;;11.38;1.92;;;6.10;86.90;;;;;;4973967;28;20078;-79
2023/12/22 03:45:33;;;;;;;10.45;2.13;;;6.10;87.00;;;;;;4956873;28;20523;-79
2023/12/22 03:47:59;;;;;;;11.02;2.45;;;6.10;85.40;;;;;;4956607;28;20038;-79
2023/12/22 03:50:24;;;;;;;4.82;1.50;;;6.10;85.10;;;;;;4975212;28;20038;-78
2023/12/22 03:52:50;;;;;;;9.20;2.20;;;6.20;84.90;;;;;;4977561;28;20023;-80
2023/12/22 03:55:15;;;;;;;11.27;2.33;;;6.20;85.00;;;;;;4977552;28;20027;-80
2023/12/22 03:57:41;;;;;;;11.52;2.60;;;6.30;84.70;;;;;;4977657;28;20042;-81
2023/12/22 04:00:07;;;;;;;10.15;2.22;;;6.20;84.60;;;;;;4977356;28;20077;-80
2023/12/22 04:02:33;;;;;;;9.45;2.28;;;6.20;83.70;;;;;;4977497;28;20089;-79
2023/12/22 04:04:58;;;;;;;12.43;2.15;;;6.20;84.20;;;;;;4960119;28;20022;-80
2023/12/22 04:07:24;;;;;;;11.50;2.33;;;6.10;84.60;;;;;;4960359;28;20026;-80
2023/12/22 04:09:49;;;;;;;12.68;2.58;;;6.20;83.80;;;;;;4960498;28;20034;-80
2023/12/22 04:12:14;;;;;;;10.80;2.20;;;6.20;84.60;;;;;;4977350;28;20042;-78
2023/12/22 04:14:40;;;;;;;8.90;1.95;;;6.10;85.60;;;;;;4977127;28;20531;-81
2023/12/22 04:17:06;;;;;;;10.27;1.92;;;6.10;85.80;;;;;;4960221;28;20030;-75
2023/12/22 04:19:31;;;;;;;8.45;2.08;;;6.10;85.80;;;;;;4977152;28;20468;-77
2023/12/22 04:21:57;;;;;;;10.18;2.10;;;6.10;86.00;;;;;;4959519;28;20027;-78
2023/12/22 04:24:22;;;;;;;11.02;2.28;;;6.00;85.80;;;;;;4959545;28;20031;-79
2023/12/22 04:26:48;;;;;;;8.18;2.30;;;5.90;86.40;;;;;;4976959;28;20022;-80
2023/12/22 04:29:14;;;;;;;7.50;1.75;;;5.90;86.40;;;;;;4959733;28;20487;-76
2023/12/22 04:31:39;;;;;;;9.57;2.03;;;5.90;86.90;;;;;;4959509;28;20027;-75
2023/12/22 04:34:05;;;;;;;10.60;2.10;;;5.90;86.60;;;;;;4959287;28;20027;-77
2023/12/22 04:36:30;;;;;;;8.30;2.22;;;5.80;86.60;;;;;;4959380;28;20500;-75
2023/12/22 04:38:56;;;;;;;9.88;2.58;;;5.80;86.80;;;;;;4976582;28;20041;-78
2023/12/22 04:41:21;;;;;;;11.55;2.83;;;5.90;87.00;;;;;;4959592;28;20035;-78
2023/12/22 04:43:47;;;;;;;13.85;2.50;;;5.90;86.40;;;;;;4959497;28;20023;-76
2023/12/22 04:46:12;;;;;;;9.13;2.80;;;5.90;86.60;;;;;;4980419;28;20500;-76
2023/12/22 04:48:38;;;;;;;12.32;3.20;;;6.00;86.70;;;;;;4959303;28;20030;-79
2023/12/22 04:51:04;;;;;;;11.68;2.53;;;5.90;86.20;;;;;;4959512;28;20023;-80
2023/12/22 04:53:29;;;;;;;9.25;2.50;;;6.00;85.70;;;;;;4958289;28;20058;-75
2023/12/22 04:55:55;;;;;;;11.07;3.22;;;6.00;86.30;;;;;;4976203;28;20023;-79
2023/12/22 04:58:20;;;;;;;8.90;2.58;;;6.00;86.80;;;;;;4976056;28;20534;-77
2023/12/22 05:00:46;;;;;;;14.77;3.20;;;6.00;86.90;;;;;;4976410;28;20490;-79
2023/12/22 05:03:11;;;;;;;9.90;2.88;;;6.00;87.30;;;;;;4958449;28;20496;-78
2023/12/22 05:05:37;;;;;;;12.70;2.55;;;6.00;87.40;;;;;;4976222;28;20449;-80
2023/12/22 05:08:03;;;;;;;14.05;2.90;;;5.90;86.90;;;;;;4976666;28;20023;-80
2023/12/22 05:10:29;;;;;;;12.30;2.47;;;5.90;86.90;;;;;;4958279;28;20027;-77
2023/12/22 05:12:54;;;;;;;13.82;2.40;;;5.90;86.40;;;;;;4958705;28;20047;-77
2023/12/22 05:15:20;;;;;;;12.07;2.42;;;5.90;85.10;;;;;;4958685;28;20031;-78
2023/12/22 05:17:45;;;;;;;8.38;1.90;;;5.90;85.20;;;;;;4975982;28;20062;-78
2023/12/22 05:20:11;;;;;;;8.20;2.20;;;5.90;84.70;;;;;;4958842;28;20551;-78
2023/12/22 05:22:37;;;;;;;9.43;2.40;;;5.90;84.70;;;;;;4975988;28;20027;-77
2023/12/22 05:25:02;;;;;;;11.98;2.50;;;5.90;84.80;;;;;;4958448;28;20023;-76
2023/12/22 05:27:28;;;;;;;13.88;2.88;;;5.90;85.00;;;;;;4975362;28;20031;-77
2023/12/22 05:29:54;;;;;;;15.73;2.95;;;5.90;84.40;;;;;;4958544;28;20529;-77
2023/12/22 05:32:19;;;;;;;13.88;3.20;;;6.00;83.50;;;;;;4959000;28;20027;-80
2023/12/22 05:34:45;;;;;;;17.65;3.67;;;6.00;83.60;;;;;;4958650;28;20468;-79
2023/12/22 05:37:10;;;;;;;14.18;3.42;;;6.10;83.60;;;;;;4959332;28;20380;-81
2023/12/22 05:39:36;;;;;;;20.77;3.50;;;6.10;83.80;;;;;;4959451;28;20412;-79
2023/12/22 05:42:01;;;;;;;18.50;3.50;;;6.10;84.30;;;;;;4977519;28;20098;-79
2023/12/22 05:44:29;;;;;;;18.75;3.72;;;6.10;84.30;;;;;;4948463;28;20402;-81
2023/12/22 05:46:56;;;;;;;18.10;3.80;;;6.10;84.30;;;;;;4976456;28;20065;-83
2023/12/22 05:49:23;;;;;;;19.15;3.50;;;6.10;84.50;;;;;;4959117;28;20023;-84
2023/12/22 05:51:49;;;;;;;16.73;3.88;;;6.10;84.80;;;;;;4958988;28;20031;-81
2023/12/22 05:54:16;;;;;;;18.33;4.28;;;6.10;84.50;;;;;;4958858;28;20471;-82
2023/12/22 05:56:42;;;;;;;22.45;3.85;;;6.10;85.30;;;;;;4958482;28;20451;-82
2023/12/22 05:59:07;;;;;;;12.80;2.97;;;6.00;85.90;;;;;;4975735;28;20046;-83
2023/12/22 06:01:33;;;;;;;16.92;3.78;;;6.00;86.10;;;;;;4958577;28;20022;-80
2023/12/22 06:03:58;;;;;;;15.40;3.03;;;6.00;86.70;;;;;;4958558;28;20031;-82
2023/12/22 06:06:24;;;;;;;11.75;3.80;;;5.90;86.70;;;;;;4958004;28;20025;-80
2023/12/22 06:08:49;;;;;;;16.92;3.78;;;5.90;87.30;;;;;;4957919;28;20033;-80
2023/12/22 06:11:15;;;;;;;16.38;4.03;;;5.80;87.80;;;;;;4974602;28;20023;-78
2023/12/22 06:13:41;;;;;;;11.70;3.35;;;5.80;88.30;;;;;;4957525;28;20023;-81
2023/12/22 06:16:12;;;;;;;14.63;4.00;;;5.80;88.30;;;;;;4958174;28;20027;-80
2023/12/22 06:18:37;;;;;;;13.65;3.33;;;5.80;88.40;;;;;;4958006;28;20400;-78
2023/12/22 06:21:03;;;;;;;17.30;3.92;;;5.80;88.60;;;;;;4959477;28;20476;-80
2023/12/22 06:23:30;;;;;;;9.45;2.17;;;5.70;88.60;;;;;;4957382;28;20476;-80
2023/12/22 06:25:55;;;;;;;12.35;2.83;;;5.70;88.50;;;;;;4975097;28;20025;-81
2023/12/22 06:28:21;;;;;;;13.75;3.30;;;5.70;88.20;;;;;;4957777;28;20117;-77
2023/12/22 06:30:47;;;;;;;14.77;3.00;;;5.70;88.80;;;;;;4974593;28;20058;-80
2023/12/22 06:33:13;;;;;;;12.68;2.83;;;5.70;88.10;;;;;;4957747;28;20030;-80
2023/12/22 06:35:41;;;;;;;18.02;3.53;;;5.60;88.20;;;;;;4958284;28;20039;-81
2023/12/22 06:38:06;;;;;;;15.27;2.92;;;5.70;88.40;;;;;;4957680;28;20027;-83
2023/12/22 06:40:34;;;;;;;20.30;3.53;;;5.60;87.70;;;;;;4957397;28;20029;-81
2023/12/22 06:43:00;;;;;;;18.92;4.10;;;5.90;91.20;;;;;;4957439;28;20129;-74
2023/12/22 06:45:25;;;;;;;17.30;3.75;;;6.50;91.70;;;;;;4957112;28;20031;-77
2023/12/22 06:47:51;;;;;;;17.73;3.50;;;6.70;86.50;;;;;;4957054;28;20015;-71
2023/12/22 06:50:17;;;;;;;16.60;3.72;;;6.90;84.80;;;;;;4974079;28;20023;-77
2023/12/22 06:52:42;;;;;;;15.88;3.95;;;7.10;83.10;;;;;;4974118;28;20019;-81
2023/12/22 06:55:08;;;;;;;23.15;3.85;;;7.10;81.50;;;;;;4974203;28;20027;-74
2023/12/22 06:57:34;;;;;;;18.33;3.72;;;7.10;81.90;;;;;;4953680;29;20107;-79
2023/12/22 07:00:00;;;;;;;14.57;3.45;;;7.00;82.30;;;;;;4953604;29;20031;-75
2023/12/22 07:02:25;;;;;;;19.50;4.20;;;7.00;82.20;;;;;;4953855;29;20055;-75
2023/12/22 07:05:23;;;;;;;23.50;3.45;;;7.10;81.40;;;;;;4954163;29;20110;-75
2023/12/22 07:07:50;;;;;;;18.63;3.85;;;7.10;81.10;;;;;;4953839;29;20035;-74
2023/12/22 07:10:17;;;;;;;14.65;5.28;;;7.30;80.60;;;;;;4954355;29;20110;-77
2023/12/22 07:12:42;;;;;;;15.88;3.85;;;7.30;80.30;;;;;;4953172;29;20031;-78
2023/12/22 07:15:10;;;;;;;15.13;4.32;;;7.10;80.70;;;;;;4953070;29;20039;-76
2023/12/22 07:17:36;;;;;;;17.55;4.25;;;7.00;82.00;;;;;;4953141;29;20050;-74
2023/12/22 07:20:04;;;;;;;15.35;3.50;;;7.10;82.10;;;;;;4935505;29;20525;-79
2023/12/22 07:22:30;;;;;;;18.27;3.67;;;7.00;82.00;;;;;;4931098;29;20087;-78
2023/12/22 07:24:56;;;;;;;14.63;3.55;;;6.90;83.20;;;;;;4918439;29;20059;-75
2023/12/22 07:27:23;;;;;;;13.52;3.42;;;6.90;82.80;;;;;;4937769;29;20030;-74
2023/12/22 07:29:49;;;;;;;14.85;3.35;;;7.00;82.20;;;;;;4937517;29;20086;-77
2023/12/22 07:32:14;;;;;;;12.70;3.38;;;7.10;82.10;;;;;;4937676;29;20481;-79
2023/12/22 07:34:40;;;;;;;10.98;3.30;;;7.40;81.70;;;;;;4938209;29;20046;-76
2023/12/22 07:37:05;;;;;;;11.10;2.53;;;7.50;80.80;;;;;;4938202;29;20026;-75
2023/12/22 07:39:35;;;;;;;11.85;2.63;;;7.60;79.70;;;;;;4938934;29;20055;-76
2023/12/22 07:42:00;;;;;;;9.82;2.65;;;7.60;79.50;;;;;;4938092;29;20023;-75
2023/12/22 07:44:26;;;;;;;9.15;2.58;;;7.20;80.80;;;;;;4938897;29;20038;-75
2023/12/22 07:46:58;;;;;;;11.95;2.80;;;7.00;81.00;;;;;;4937550;29;20026;-76
2023/12/22 07:49:25;;;;;;;8.48;2.33;;;6.80;81.70;;;;;;4937018;29;20027;-75
2023/12/22 07:51:53;;;;;;;9.52;2.50;;;6.60;82.90;;;;;;4937335;29;20055;-76
2023/12/22 07:54:20;;;;;;;12.35;2.50;;;6.30;84.50;;;;;;4937247;29;20024;-76
2023/12/22 07:56:49;;;;;;;18.33;3.25;;;6.20;85.30;;;;;;4946952;29;20074;-77
2023/12/22 07:59:14;;;;;;;14.75;3.08;;;6.00;85.60;;;;;;4940720;29;20457;-77
2023/12/22 08:01:40;;;;;;;9.90;2.67;;;5.90;86.50;;;;;;4940398;29;20061;-75
2023/12/22 08:04:05;;;;;;;10.30;3.05;;;5.90;87.10;;;;;;4957721;29;20031;-78
2023/12/22 08:06:31;;;;;;;12.77;2.95;;;5.90;87.20;;;;;;4958013;29;20111;-79
2023/12/22 08:08:56;;;;;;;11.18;3.00;;;5.80;87.60;;;;;;4958323;28;20118;-78
2023/12/22 08:11:25;;;;;;;14.52;3.38;;;5.90;87.70;;;;;;4940462;29;20053;-79
2023/12/22 08:13:50;;;;;;;12.95;2.70;;;5.80;87.20;;;;;;4957983;28;20026;-77
2023/12/22 08:16:16;;;;;;;11.75;2.60;;;5.80;87.00;;;;;;4958387;28;20036;-76
2023/12/22 08:18:41;;;;;;;9.45;2.22;;;5.80;87.40;;;;;;4977232;28;20193;-77
2023/12/22 08:21:07;;;;;;;11.82;2.53;;;5.70;87.20;;;;;;4977255;28;20027;-76
2023/12/22 08:23:33;;;;;;;8.45;2.35;;;5.80;87.30;;;;;;4978263;28;20041;-78
2023/12/22 08:25:58;;;;;;;8.98;1.77;;;5.80;87.30;;;;;;4985204;28;20019;-75
2023/12/22 08:28:24;;;;;;;10.77;2.10;;;5.80;87.20;;;;;;4983504;28;20015;-76
2023/12/22 08:30:49;;;;;;;6.80;1.77;;;5.80;87.30;;;;;;4976497;28;20031;-77
2023/12/22 08:33:15;;;;;;;9.27;1.85;;;5.80;87.30;;;;;;4959168;28;20027;-76
2023/12/22 08:35:40;;;;;;;6.97;2.13;;;5.80;86.80;;;;;;4976532;28;20039;-76
2023/12/22 08:38:07;;;;;;;6.18;1.77;;;5.70;87.40;;;;;;4957971;28;20038;-76
2023/12/22 08:40:32;;;;;;;7.68;1.92;;;5.70;87.80;;;;;;4976444;28;20038;-77
2023/12/22 08:43:00;;;;;;;7.10;1.90;;;5.60;88.80;;;;;;4959171;28;20027;-75
2023/12/22 08:45:29;;;;;;;10.85;1.85;;;5.70;88.60;;;;;;4976615;28;20023;-76
2023/12/22 08:47:55;;;;;;;8.48;2.10;;;5.70;88.60;;;;;;4959522;28;20030;-76
2023/12/22 08:50:21;;;;;;;8.25;2.30;;;5.70;88.40;;;;;;4976593;28;20040;-76
2023/12/22 08:52:47;;;;;;;10.35;2.47;;;5.70;88.60;;;;;;4982497;28;20047;-78
2023/12/22 08:55:12;;;;;;;12.63;2.85;;;5.70;88.70;;;;;;4976509;28;20310;-77
2023/12/22 08:57:39;;;;;;;6.05;2.28;;;5.70;88.90;;;;;;4976056;28;20051;-77
2023/12/22 09:00:05;;;;;;;7.32;2.40;;;5.80;88.60;;;;;;4976021;28;20038;-77
2023/12/22 09:02:31;;;;;;;8.30;2.15;;;5.80;88.20;;;;;;4976155;28;20034;-76
2023/12/22 09:04:56;;;;;;;10.93;2.60;;;5.80;87.60;;;;;;4976122;28;20103;-76
2023/12/22 09:07:22;;;;;;;11.73;2.95;;;5.80;87.80;;;;;;4977523;28;20023;-76
2023/12/22 09:09:48;;;;;;;11.32;2.80;;;5.80;87.70;;;;;;4976045;28;20023;-76
2023/12/22 09:12:14;;;;;;;13.50;4.03;;;5.80;87.80;;;;;;4975636;28;20045;-75
2023/12/22 09:14:39;;;;;;;11.55;3.35;;;5.80;88.00;;;;;;4958474;28;20097;-76
2023/12/22 09:17:05;;;;;;;11.82;3.03;;;5.80;88.10;;;;;;4958565;28;20038;-75
2023/12/22 09:19:33;;;;;;;9.80;2.90;;;5.80;89.00;;;;;;4975798;28;20085;-76
2023/12/22 09:21:59;;;;;;;10.02;2.05;;;5.80;87.80;;;;;;4975838;28;20095;-76
2023/12/22 09:24:24;;;;;;;10.55;3.03;;;5.80;87.50;;;;;;4958270;28;20488;-76
2023/12/22 09:26:51;;;;;;;7.78;2.38;;;5.80;87.00;;;;;;4958394;28;20027;-76
2023/12/22 09:29:17;;;;;;;9.52;2.92;;;5.80;87.70;;;;;;4958385;28;20035;-77
2023/12/22 09:31:42;;;;;;;6.05;1.90;;;5.70;88.70;;;;;;4958346;28;20019;-76
2023/12/22 09:34:08;;;;;;;7.85;2.03;;;5.70;88.90;;;;;;4975601;28;20157;-77
2023/12/22 09:36:33;;;;;;;7.07;1.95;;;5.80;89.10;;;;;;4958299;28;20027;-76
2023/12/22 09:38:59;;;;;;;7.97;1.92;;;5.70;88.30;;;;;;4975155;28;20046;-76
2023/12/22 09:41:24;;;;;;;7.95;2.17;;;5.80;88.80;;;;;;4975365;28;20019;-76
2023/12/22 09:43:52;;;;;;;9.07;2.10;;;5.70;89.10;;;;;;4975216;28;20049;-77
2023/12/22 09:46:21;;;;;;;6.80;1.95;;;5.70;89.00;;;;;;4975439;28;20026;-76
2023/12/22 09:48:48;;;;;;;10.40;2.28;;;5.80;88.60;;;;;;4974925;28;20019;-76
2023/12/22 09:51:14;;;;;;;10.98;2.75;;;5.80;88.30;;;;;;4978231;28;20033;-77
2023/12/22 09:53:41;;;;;;;10.15;1.92;;;5.80;88.40;;;;;;4974785;28;20050;-75
2023/12/22 09:56:07;;;;;;;12.25;2.78;;;5.90;87.70;;;;;;4974451;28;20113;-76
2023/12/22 09:58:35;;;;;;;13.90;2.95;;;5.90;87.70;;;;;;4974494;28;20035;-76
2023/12/22 10:01:05;;;;;;;13.43;3.10;;;6.00;87.80;;;;;;4974610;28;20019;-75
2023/12/22 10:03:32;;;;;;;15.00;3.97;;;5.90;88.20;;;;;;4974613;28;20047;-77
2023/12/22 10:05:58;;;;;;;11.57;3.10;;;6.00;88.00;;;;;;4974259;28;20104;-77
2023/12/22 10:08:26;;;;;;;20.73;4.38;;;6.00;87.40;;;;;;4974195;28;20436;-76
2023/12/22 10:10:52;;;;;;;18.50;4.00;;;6.00;87.70;;;;;;4974297;28;20106;-77
2023/12/22 10:13:18;;;;;;;13.88;3.67;;;6.00;88.10;;;;;;4974418;28;20089;-78
2023/12/22 10:15:46;;;;;;;17.75;3.80;;;6.00;88.00;;;;;;4974378;28;20038;-76
2023/12/22 10:18:12;;;;;;;17.40;3.63;;;6.00;88.00;;;;;;4974434;28;20039;-77
2023/12/22 10:20:38;;;;;;;22.45;7.18;;;6.00;88.00;;;;;;4957002;28;20041;-76
2023/12/22 10:23:04;;;;;;;17.30;3.58;;;6.10;87.80;;;;;;4974349;28;20031;-75
2023/12/22 10:25:30;;;;;;;21.08;4.60;;;6.10;87.50;;;;;;4957329;28;20041;-77
2023/12/22 10:27:56;;;;;;;17.30;4.00;;;6.10;88.10;;;;;;4973926;28;20127;-76
2023/12/22 10:30:24;;;;;;;26.83;4.85;;;6.10;88.00;;;;;;4956796;28;20114;-77
2023/12/22 10:32:52;;;;;;;18.13;3.55;;;6.10;87.80;;;;;;4956839;28;20034;-76
2023/12/22 10:35:20;;;;;;;20.67;4.00;;;6.10;87.40;;;;;;4957129;28;20034;-78
2023/12/22 10:37:47;;;;;;;18.98;4.22;;;6.20;87.00;;;;;;4973967;28;20027;-76
2023/12/22 10:40:13;;;;;;;16.52;3.50;;;6.20;86.70;;;;;;4956868;28;20045;-74
2023/12/22 10:42:40;;;;;;;22.58;4.40;;;6.20;87.30;;;;;;4973912;28;20027;-76
2023/12/22 10:45:07;;;;;;;17.48;3.90;;;6.20;87.70;;;;;;4958308;28;20038;-75
2023/12/22 10:47:33;;;;;;;22.45;5.90;;;6.20;88.20;;;;;;4958892;28;20065;-75
2023/12/22 10:50:04;;;;;;;20.83;4.85;;;6.20;87.70;;;;;;4974166;28;20038;-74
2023/12/22 10:52:29;;;;;;;16.52;4.88;;;6.30;87.80;;;;;;4957030;28;20027;-75
2023/12/22 10:54:57;;;;;;;13.85;3.63;;;6.30;86.60;;;;;;4956856;28;20356;-75
2023/12/22 10:57:23;;;;;;;14.10;3.55;;;6.40;87.30;;;;;;4956365;28;20043;-76
2023/12/22 10:59:48;;;;;;;12.15;2.67;;;6.30;86.90;;;;;;4972705;28;20042;-77
2023/12/22 11:02:17;;;;;;;13.25;2.78;;;6.30;87.00;;;;;;4956189;28;20019;-79
2023/12/22 11:04:50;;;;;;;12.70;2.97;;;6.30;87.20;;;;;;4973570;28;20035;-77
2023/12/22 11:07:19;;;;;;;13.60;3.30;;;6.30;87.20;;;;;;4973836;28;20031;-76
2023/12/22 11:09:50;;;;;;;14.55;3.20;;;6.30;87.40;;;;;;4956597;28;20019;-76
2023/12/22 11:12:16;;;;;;;11.90;3.08;;;6.30;87.10;;;;;;4956822;28;20033;-76
2023/12/22 11:14:42;;;;;;;12.18;2.78;;;6.40;86.50;;;;;;4974378;28;20034;-77
2023/12/22 11:17:10;;;;;;;11.80;2.33;;;6.40;86.60;;;;;;4959030;28;20023;-78
2023/12/22 11:19:36;;;;;;;8.80;2.58;;;6.30;87.20;;;;;;4957362;28;20046;-77
2023/12/22 11:22:06;;;;;;;7.22;1.98;;;6.30;87.60;;;;;;4956589;28;20029;-77
2023/12/22 11:24:33;;;;;;;8.65;2.00;;;6.40;86.90;;;;;;4956448;28;20424;-76
2023/12/22 11:27:01;;;;;;;8.10;2.05;;;6.30;86.90;;;;;;4956591;28;20031;-76
2023/12/22 11:29:28;;;;;;;5.32;1.55;;;6.40;86.50;;;;;;4956692;28;20026;-77
2023/12/22 11:31:57;;;;;;;7.20;1.67;;;6.40;86.50;;;;;;4973024;28;20037;-76
2023/12/22 11:34:26;;;;;;;6.45;1.83;;;6.40;86.80;;;;;;4973437;28;20019;-77
2023/12/22 11:36:55;;;;;;;10.95;2.05;;;6.50;86.70;;;;;;4973371;28;20113;-77
2023/12/22 11:39:22;;;;;;;8.38;2.08;;;6.40;86.90;;;;;;4956257;28;20118;-76
2023/12/22 11:41:48;;;;;;;5.95;1.98;;;6.40;87.10;;;;;;4955801;28;20388;-76
2023/12/22 11:44:14;;;;;;;10.55;2.65;;;6.50;86.90;;;;;;4956347;28;20031;-77
2023/12/22 11:46:43;;;;;;;5.95;1.80;;;6.50;87.10;;;;;;4956027;28;20376;-76
2023/12/22 11:49:10;;;;;;;5.47;2.40;;;6.50;87.00;;;;;;4955760;28;20030;-76
2023/12/22 11:51:35;;;;;;;13.00;6.45;;;6.50;86.40;;;;;;4973466;28;20077;-76
2023/12/22 11:54:03;;;;;;;8.02;2.13;;;6.60;86.10;;;;;;4956011;28;20035;-75
2023/12/22 11:56:30;;;;;;;8.48;1.65;;;6.60;86.40;;;;;;4955496;28;20053;-75
2023/12/22 11:59:01;;;;;;;6.32;1.27;;;6.60;86.60;;;;;;4973325;28;20060;-76
2023/12/22 12:01:31;;;;;;;6.60;1.40;;;6.60;86.80;;;;;;4973344;28;20074;-75
2023/12/22 12:03:59;;;;;;;6.00;1.20;;;6.60;85.90;;;;;;4956098;28;20026;-74
2023/12/22 12:06:25;;;;;;;6.43;1.20;;;6.60;85.70;;;;;;4973513;28;20057;-74
2023/12/22 12:08:53;;;;;;;4.40;1.13;;;6.70;85.50;;;;;;4973440;28;20095;-74
2023/12/22 12:11:19;;;;;;;7.00;1.23;;;6.60;85.70;;;;;;4974045;28;20086;-75
2023/12/22 12:13:46;;;;;;;3.97;1.05;;;6.60;86.60;;;;;;4976729;28;20019;-75
2023/12/22 12:16:13;;;;;;;6.47;1.50;;;6.60;86.10;;;;;;4976824;28;20031;-75
2023/12/22 12:18:39;;;;;;;2.85;1.00;;;6.60;86.20;;;;;;4976778;28;20412;-77
2023/12/22 12:21:07;;;;;;;3.58;1.20;;;6.60;86.10;;;;;;4976729;28;20027;-75
2023/12/22 12:23:33;;;;;;;3.30;1.30;;;6.70;86.20;;;;;;4976844;28;20027;-75
2023/12/22 12:25:59;;;;;;;5.57;1.55;;;6.70;86.40;;;;;;4976807;28;20031;-75
2023/12/22 12:28:26;;;;;;;5.18;1.30;;;6.70;86.20;;;;;;4959180;28;20477;-75
2023/12/22 12:31:01;;;;;;;2.10;1.00;;;6.70;87.00;;;;;;4976469;28;20078;-79
2023/12/22 12:33:27;;;;;;;3.13;0.80;;;6.60;86.80;;;;;;4977262;28;20534;-78
2023/12/22 12:35:58;;;;;;;4.05;1.02;;;6.60;87.20;;;;;;4977275;28;20533;-79
2023/12/22 12:38:47;;;;;;;2.80;1.00;;;6.60;87.30;;;;;;4977403;28;20038;-80
2023/12/22 12:41:15;;;;;;;3.20;1.13;;;6.70;87.80;;;;;;4979809;28;20081;-80
2023/12/22 12:43:43;;;;;;;3.13;0.93;;;6.80;87.20;;;;;;4975812;28;20023;-77
2023/12/22 12:46:09;;;;;;;2.25;0.70;;;6.80;86.40;;;;;;4956525;29;20059;-79
2023/12/22 12:48:34;;;;;;;2.25;1.15;;;6.90;86.40;;;;;;4956548;29;20121;-79
2023/12/22 12:51:07;;;;;;;4.32;1.33;;;6.80;86.80;;;;;;4939685;29;20047;-76